sensor_id;sensor_type;location;lat;lon;timestamp;P1;durP1;ratioP1;P2;durP2;ratioP2
21677;SDS011;11000;50.360;7.582;2022-07-29T00:02:16;3.77;;;2.13;;
21677;SDS011;11000;50.360;7.582;2022-07-29T00:04:36;5.47;;;1.93;;
21677;SDS011;11000;50.360;7.582;2022-07-29T00:06:57;4.50;;;2.57;;
21677;SDS011;11000;50.360;7.582;2022-07-29T00:09:17;3.47;;;2.03;;
21677;SDS011;11000;50.360;7.582;2022-07-29T00:11:38;6.70;;;2.47;;
21677;SDS011;11000;50.360;7.582;2022-07-29T00:13:58;4.03;;;2.17;;
21677;SDS011;11000;50.360;7.582;2022-07-29T00:16:19;3.73;;;1.83;;
21677;SDS011;11000;50.360;7.582;2022-07-29T00:18:39;4.47;;;2.30;;
21677;SDS011;11000;50.360;7.582;2022-07-29T00:21:00;2.90;;;2.07;;
21677;SDS011;11000;50.360;7.582;2022-07-29T00:23:20;4.63;;;2.00;;
21677;SDS011;11000;50.360;7.582;2022-07-29T00:25:41;9.03;;;1.97;;
21677;SDS011;11000;50.360;7.582;2022-07-29T00:28:02;3.77;;;1.57;;
21677;SDS011;11000;50.360;7.582;2022-07-29T00:30:22;5.60;;;1.70;;
21677;SDS011;11000;50.360;7.582;2022-07-29T00:32:43;4.40;;;1.70;;
21677;SDS011;11000;50.360;7.582;2022-07-29T00:35:03;3.97;;;1.40;;
21677;SDS011;11000;50.360;7.582;2022-07-29T00:37:43;8.40;;;1.60;;
21677;SDS011;11000;50.360;7.582;2022-07-29T00:40:04;2.57;;;1.53;;
21677;SDS011;11000;50.360;7.582;2022-07-29T00:42:26;4.73;;;2.53;;
21677;SDS011;11000;50.360;7.582;2022-07-29T00:44:47;4.83;;;1.67;;
21677;SDS011;11000;50.360;7.582;2022-07-29T00:47:08;2.70;;;1.80;;
21677;SDS011;11000;50.360;7.582;2022-07-29T00:49:30;2.70;;;1.50;;
21677;SDS011;11000;50.360;7.582;2022-07-29T00:51:50;9.13;;;1.80;;
21677;SDS011;11000;50.360;7.582;2022-07-29T00:54:11;3.30;;;1.27;;
21677;SDS011;11000;50.360;7.582;2022-07-29T00:56:32;1.73;;;1.40;;
21677;SDS011;11000;50.360;7.582;2022-07-29T00:58:54;4.27;;;1.37;;
21677;SDS011;11000;50.360;7.582;2022-07-29T01:01:16;5.30;;;2.03;;
21677;SDS011;11000;50.360;7.582;2022-07-29T01:03:36;3.03;;;1.53;;
21677;SDS011;11000;50.360;7.582;2022-07-29T01:05:57;2.07;;;1.13;;
21677;SDS011;11000;50.360;7.582;2022-07-29T01:08:18;3.30;;;1.17;;
21677;SDS011;11000;50.360;7.582;2022-07-29T01:10:40;3.50;;;1.23;;
21677;SDS011;11000;50.360;7.582;2022-07-29T01:13:02;5.80;;;1.80;;
21677;SDS011;11000;50.360;7.582;2022-07-29T01:15:23;2.97;;;1.40;;
21677;SDS011;11000;50.360;7.582;2022-07-29T01:20:19;3.60;;;1.57;;
21677;SDS011;11000;50.360;7.582;2022-07-29T01:28:21;3.37;;;1.43;;
21677;SDS011;11000;50.360;7.582;2022-07-29T01:31:02;5.93;;;1.77;;
21677;SDS011;11000;50.360;7.582;2022-07-29T01:33:24;4.03;;;1.43;;
21677;SDS011;11000;50.360;7.582;2022-07-29T01:36:10;3.20;;;1.40;;
21677;SDS011;11000;50.360;7.582;2022-07-29T01:38:34;3.07;;;1.10;;
21677;SDS011;11000;50.360;7.582;2022-07-29T01:40:58;4.53;;;1.80;;
21677;SDS011;11000;50.360;7.582;2022-07-29T01:43:38;5.40;;;1.50;;
21677;SDS011;11000;50.360;7.582;2022-07-29T01:46:05;6.13;;;1.80;;
21677;SDS011;11000;50.360;7.582;2022-07-29T01:48:44;2.13;;;1.73;;
21677;SDS011;11000;50.360;7.582;2022-07-29T01:51:09;4.00;;;2.07;;
21677;SDS011;11000;50.360;7.582;2022-07-29T01:53:42;1.60;;;1.40;;
21677;SDS011;11000;50.360;7.582;2022-07-29T01:56:08;3.17;;;1.60;;
21677;SDS011;11000;50.360;7.582;2022-07-29T01:58:31;5.17;;;1.77;;
21677;SDS011;11000;50.360;7.582;2022-07-29T02:00:52;4.20;;;1.70;;
21677;SDS011;11000;50.360;7.582;2022-07-29T02:03:15;4.03;;;1.67;;
21677;SDS011;11000;50.360;7.582;2022-07-29T02:05:38;2.60;;;1.70;;
21677;SDS011;11000;50.360;7.582;2022-07-29T02:08:02;7.23;;;1.60;;
21677;SDS011;11000;50.360;7.582;2022-07-29T02:10:31;2.73;;;1.63;;
21677;SDS011;11000;50.360;7.582;2022-07-29T02:12:54;6.97;;;2.07;;
21677;SDS011;11000;50.360;7.582;2022-07-29T02:15:16;3.27;;;1.70;;
21677;SDS011;11000;50.360;7.582;2022-07-29T02:17:40;3.07;;;1.63;;
21677;SDS011;11000;50.360;7.582;2022-07-29T02:20:07;5.27;;;1.50;;
21677;SDS011;11000;50.360;7.582;2022-07-29T02:22:29;2.67;;;1.40;;
21677;SDS011;11000;50.360;7.582;2022-07-29T02:24:53;4.20;;;1.60;;
21677;SDS011;11000;50.360;7.582;2022-07-29T02:27:15;3.23;;;1.60;;
21677;SDS011;11000;50.360;7.582;2022-07-29T02:29:38;4.37;;;2.00;;
21677;SDS011;11000;50.360;7.582;2022-07-29T02:31:59;3.90;;;1.40;;
21677;SDS011;11000;50.360;7.582;2022-07-29T02:34:22;3.17;;;1.53;;
21677;SDS011;11000;50.360;7.582;2022-07-29T02:36:44;2.13;;;1.57;;
21677;SDS011;11000;50.360;7.582;2022-07-29T02:39:05;3.63;;;1.60;;
21677;SDS011;11000;50.360;7.582;2022-07-29T02:41:40;2.00;;;1.67;;
21677;SDS011;11000;50.360;7.582;2022-07-29T02:44:11;3.47;;;1.90;;
21677;SDS011;11000;50.360;7.582;2022-07-29T02:46:34;2.23;;;1.53;;
21677;SDS011;11000;50.360;7.582;2022-07-29T02:51:53;4.00;;;1.60;;
21677;SDS011;11000;50.360;7.582;2022-07-29T02:54:26;2.87;;;1.47;;
21677;SDS011;11000;50.360;7.582;2022-07-29T02:57:13;2.37;;;1.50;;
21677;SDS011;11000;50.360;7.582;2022-07-29T02:59:40;4.47;;;1.80;;
21677;SDS011;11000;50.360;7.582;2022-07-29T03:02:03;3.73;;;1.80;;
21677;SDS011;11000;50.360;7.582;2022-07-29T03:04:26;6.70;;;1.50;;
21677;SDS011;11000;50.360;7.582;2022-07-29T03:06:49;3.30;;;1.80;;
21677;SDS011;11000;50.360;7.582;2022-07-29T03:09:11;5.43;;;1.73;;
21677;SDS011;11000;50.360;7.582;2022-07-29T03:11:33;2.83;;;1.50;;
21677;SDS011;11000;50.360;7.582;2022-07-29T03:13:55;2.70;;;1.53;;
21677;SDS011;11000;50.360;7.582;2022-07-29T03:16:16;9.33;;;2.37;;
21677;SDS011;11000;50.360;7.582;2022-07-29T03:18:39;4.17;;;1.73;;
21677;SDS011;11000;50.360;7.582;2022-07-29T03:20:59;2.27;;;1.30;;
21677;SDS011;11000;50.360;7.582;2022-07-29T03:23:21;2.87;;;1.90;;
21677;SDS011;11000;50.360;7.582;2022-07-29T03:25:43;4.57;;;1.80;;
21677;SDS011;11000;50.360;7.582;2022-07-29T03:28:04;4.93;;;1.90;;
21677;SDS011;11000;50.360;7.582;2022-07-29T03:30:24;4.87;;;1.87;;
21677;SDS011;11000;50.360;7.582;2022-07-29T03:32:45;4.93;;;2.10;;
21677;SDS011;11000;50.360;7.582;2022-07-29T03:35:06;1.70;;;1.50;;
21677;SDS011;11000;50.360;7.582;2022-07-29T03:37:26;6.13;;;2.23;;
21677;SDS011;11000;50.360;7.582;2022-07-29T03:39:47;2.87;;;1.60;;
21677;SDS011;11000;50.360;7.582;2022-07-29T03:42:11;4.07;;;2.10;;
21677;SDS011;11000;50.360;7.582;2022-07-29T03:44:36;2.33;;;1.50;;
21677;SDS011;11000;50.360;7.582;2022-07-29T03:46:58;5.10;;;1.67;;
21677;SDS011;11000;50.360;7.582;2022-07-29T03:49:22;3.03;;;1.80;;
21677;SDS011;11000;50.360;7.582;2022-07-29T03:51:44;3.43;;;2.03;;
21677;SDS011;11000;50.360;7.582;2022-07-29T03:54:05;7.23;;;2.07;;
21677;SDS011;11000;50.360;7.582;2022-07-29T03:56:27;3.43;;;2.20;;
21677;SDS011;11000;50.360;7.582;2022-07-29T03:58:49;3.53;;;2.07;;
21677;SDS011;11000;50.360;7.582;2022-07-29T04:01:11;4.67;;;2.13;;
21677;SDS011;11000;50.360;7.582;2022-07-29T04:03:33;3.70;;;1.90;;
21677;SDS011;11000;50.360;7.582;2022-07-29T04:05:58;3.73;;;1.87;;
21677;SDS011;11000;50.360;7.582;2022-07-29T04:08:20;2.73;;;2.23;;
21677;SDS011;11000;50.360;7.582;2022-07-29T04:10:41;4.20;;;2.17;;
21677;SDS011;11000;50.360;7.582;2022-07-29T04:13:01;3.17;;;2.03;;
21677;SDS011;11000;50.360;7.582;2022-07-29T04:15:22;5.43;;;1.97;;
21677;SDS011;11000;50.360;7.582;2022-07-29T04:17:42;4.33;;;2.20;;
21677;SDS011;11000;50.360;7.582;2022-07-29T04:20:03;5.33;;;2.10;;
21677;SDS011;11000;50.360;7.582;2022-07-29T04:22:24;5.43;;;1.70;;
21677;SDS011;11000;50.360;7.582;2022-07-29T04:24:45;3.13;;;2.10;;
21677;SDS011;11000;50.360;7.582;2022-07-29T04:27:05;5.43;;;2.27;;
21677;SDS011;11000;50.360;7.582;2022-07-29T04:29:26;5.77;;;2.00;;
21677;SDS011;11000;50.360;7.582;2022-07-29T04:31:46;3.33;;;1.93;;
21677;SDS011;11000;50.360;7.582;2022-07-29T04:34:07;2.43;;;1.97;;
21677;SDS011;11000;50.360;7.582;2022-07-29T04:36:28;4.30;;;1.90;;
21677;SDS011;11000;50.360;7.582;2022-07-29T04:38:49;5.67;;;2.10;;
21677;SDS011;11000;50.360;7.582;2022-07-29T04:41:10;2.70;;;1.80;;
21677;SDS011;11000;50.360;7.582;2022-07-29T04:43:30;4.30;;;2.03;;
21677;SDS011;11000;50.360;7.582;2022-07-29T04:45:50;4.63;;;2.13;;
21677;SDS011;11000;50.360;7.582;2022-07-29T04:48:11;2.70;;;1.87;;
21677;SDS011;11000;50.360;7.582;2022-07-29T04:50:32;5.33;;;2.10;;
21677;SDS011;11000;50.360;7.582;2022-07-29T04:52:52;1.63;;;1.53;;
21677;SDS011;11000;50.360;7.582;2022-07-29T04:55:13;6.23;;;2.37;;
21677;SDS011;11000;50.360;7.582;2022-07-29T04:57:33;4.90;;;2.10;;
21677;SDS011;11000;50.360;7.582;2022-07-29T04:59:54;4.57;;;2.27;;
21677;SDS011;11000;50.360;7.582;2022-07-29T05:02:14;2.87;;;1.80;;
21677;SDS011;11000;50.360;7.582;2022-07-29T05:04:35;2.47;;;1.90;;
21677;SDS011;11000;50.360;7.582;2022-07-29T05:06:55;4.13;;;1.93;;
21677;SDS011;11000;50.360;7.582;2022-07-29T05:09:16;1.80;;;1.43;;
21677;SDS011;11000;50.360;7.582;2022-07-29T05:11:36;4.80;;;2.00;;
21677;SDS011;11000;50.360;7.582;2022-07-29T05:13:57;3.87;;;2.03;;
21677;SDS011;11000;50.360;7.582;2022-07-29T05:16:17;3.03;;;1.70;;
21677;SDS011;11000;50.360;7.582;2022-07-29T05:18:38;5.70;;;2.50;;
21677;SDS011;11000;50.360;7.582;2022-07-29T05:20:59;4.80;;;2.13;;
21677;SDS011;11000;50.360;7.582;2022-07-29T05:23:19;3.87;;;1.80;;
21677;SDS011;11000;50.360;7.582;2022-07-29T05:25:40;3.50;;;2.00;;
21677;SDS011;11000;50.360;7.582;2022-07-29T05:28:01;6.93;;;2.27;;
21677;SDS011;11000;50.360;7.582;2022-07-29T05:30:21;4.30;;;2.00;;
21677;SDS011;11000;50.360;7.582;2022-07-29T05:32:42;4.37;;;2.20;;
21677;SDS011;11000;50.360;7.582;2022-07-29T05:35:03;2.97;;;1.70;;
21677;SDS011;11000;50.360;7.582;2022-07-29T05:37:23;2.67;;;2.10;;
21677;SDS011;11000;50.360;7.582;2022-07-29T05:39:44;4.77;;;2.00;;
21677;SDS011;11000;50.360;7.582;2022-07-29T05:42:08;1.93;;;1.83;;
21677;SDS011;11000;50.360;7.582;2022-07-29T05:44:29;2.73;;;1.80;;
21677;SDS011;11000;50.360;7.582;2022-07-29T05:46:50;4.37;;;1.70;;
21677;SDS011;11000;50.360;7.582;2022-07-29T05:49:10;4.07;;;1.70;;
21677;SDS011;11000;50.360;7.582;2022-07-29T05:51:32;3.90;;;1.90;;
21677;SDS011;11000;50.360;7.582;2022-07-29T05:53:53;2.87;;;1.80;;
21677;SDS011;11000;50.360;7.582;2022-07-29T05:56:14;3.13;;;2.07;;
21677;SDS011;11000;50.360;7.582;2022-07-29T05:58:34;5.37;;;2.43;;
21677;SDS011;11000;50.360;7.582;2022-07-29T06:00:56;6.43;;;1.90;;
21677;SDS011;11000;50.360;7.582;2022-07-29T06:03:19;4.50;;;2.10;;
21677;SDS011;11000;50.360;7.582;2022-07-29T06:05:39;2.13;;;1.93;;
21677;SDS011;11000;50.360;7.582;2022-07-29T06:08:00;3.67;;;1.70;;
21677;SDS011;11000;50.360;7.582;2022-07-29T06:10:21;5.43;;;2.10;;
21677;SDS011;11000;50.360;7.582;2022-07-29T06:12:42;4.83;;;1.83;;
21677;SDS011;11000;50.360;7.582;2022-07-29T06:15:03;5.17;;;2.37;;
21677;SDS011;11000;50.360;7.582;2022-07-29T06:17:23;3.93;;;1.83;;
21677;SDS011;11000;50.360;7.582;2022-07-29T06:19:45;2.73;;;1.87;;
21677;SDS011;11000;50.360;7.582;2022-07-29T06:22:06;6.30;;;2.00;;
21677;SDS011;11000;50.360;7.582;2022-07-29T06:24:26;6.90;;;2.67;;
21677;SDS011;11000;50.360;7.582;2022-07-29T06:26:47;5.40;;;2.23;;
21677;SDS011;11000;50.360;7.582;2022-07-29T06:29:08;5.00;;;2.40;;
21677;SDS011;11000;50.360;7.582;2022-07-29T06:31:30;5.47;;;2.63;;
21677;SDS011;11000;50.360;7.582;2022-07-29T06:33:51;6.80;;;2.60;;
21677;SDS011;11000;50.360;7.582;2022-07-29T06:36:12;7.77;;;2.43;;
21677;SDS011;11000;50.360;7.582;2022-07-29T06:38:33;5.80;;;2.20;;
21677;SDS011;11000;50.360;7.582;2022-07-29T06:40:54;4.83;;;2.30;;
21677;SDS011;11000;50.360;7.582;2022-07-29T06:43:20;5.10;;;2.10;;
21677;SDS011;11000;50.360;7.582;2022-07-29T06:45:41;7.97;;;2.50;;
21677;SDS011;11000;50.360;7.582;2022-07-29T06:48:02;6.53;;;2.50;;
21677;SDS011;11000;50.360;7.582;2022-07-29T06:50:24;2.57;;;1.57;;
21677;SDS011;11000;50.360;7.582;2022-07-29T06:52:44;4.77;;;2.10;;
21677;SDS011;11000;50.360;7.582;2022-07-29T06:55:05;4.90;;;2.10;;
21677;SDS011;11000;50.360;7.582;2022-07-29T06:57:26;6.27;;;1.90;;
21677;SDS011;11000;50.360;7.582;2022-07-29T06:59:47;2.37;;;1.80;;
21677;SDS011;11000;50.360;7.582;2022-07-29T07:02:08;3.67;;;1.90;;
21677;SDS011;11000;50.360;7.582;2022-07-29T07:04:28;6.30;;;2.30;;
21677;SDS011;11000;50.360;7.582;2022-07-29T07:06:49;4.17;;;2.37;;
21677;SDS011;11000;50.360;7.582;2022-07-29T07:09:09;6.00;;;1.73;;
21677;SDS011;11000;50.360;7.582;2022-07-29T07:11:30;9.17;;;2.43;;
21677;SDS011;11000;50.360;7.582;2022-07-29T07:13:50;7.57;;;2.13;;
21677;SDS011;11000;50.360;7.582;2022-07-29T07:16:11;5.07;;;1.97;;
21677;SDS011;11000;50.360;7.582;2022-07-29T07:18:31;6.90;;;1.93;;
21677;SDS011;11000;50.360;7.582;2022-07-29T07:20:52;5.33;;;2.00;;
21677;SDS011;11000;50.360;7.582;2022-07-29T07:23:12;3.13;;;1.60;;
21677;SDS011;11000;50.360;7.582;2022-07-29T07:25:33;3.47;;;1.60;;
21677;SDS011;11000;50.360;7.582;2022-07-29T07:28:12;6.03;;;2.10;;
21677;SDS011;11000;50.360;7.582;2022-07-29T07:30:33;2.23;;;1.50;;
21677;SDS011;11000;50.360;7.582;2022-07-29T07:32:54;3.10;;;1.50;;
21677;SDS011;11000;50.360;7.582;2022-07-29T07:35:15;6.57;;;2.00;;
21677;SDS011;11000;50.360;7.582;2022-07-29T07:37:35;5.03;;;2.00;;
21677;SDS011;11000;50.360;7.582;2022-07-29T07:39:57;7.17;;;2.30;;
21677;SDS011;11000;50.360;7.582;2022-07-29T07:42:18;3.77;;;1.83;;
21677;SDS011;11000;50.360;7.582;2022-07-29T07:44:40;7.23;;;2.37;;
21677;SDS011;11000;50.360;7.582;2022-07-29T07:47:00;5.90;;;2.00;;
21677;SDS011;11000;50.360;7.582;2022-07-29T07:49:21;4.73;;;1.80;;
21677;SDS011;11000;50.360;7.582;2022-07-29T07:51:41;5.00;;;2.10;;
21677;SDS011;11000;50.360;7.582;2022-07-29T07:54:02;4.73;;;1.83;;
21677;SDS011;11000;50.360;7.582;2022-07-29T07:56:22;5.67;;;2.00;;
21677;SDS011;11000;50.360;7.582;2022-07-29T07:58:43;5.53;;;2.10;;
21677;SDS011;11000;50.360;7.582;2022-07-29T08:01:04;5.33;;;1.57;;
21677;SDS011;11000;50.360;7.582;2022-07-29T08:03:24;6.20;;;2.40;;
21677;SDS011;11000;50.360;7.582;2022-07-29T08:05:45;4.57;;;2.00;;
21677;SDS011;11000;50.360;7.582;2022-07-29T08:08:07;5.03;;;1.87;;
21677;SDS011;11000;50.360;7.582;2022-07-29T08:10:28;6.67;;;1.60;;
21677;SDS011;11000;50.360;7.582;2022-07-29T08:13:07;6.70;;;1.97;;
21677;SDS011;11000;50.360;7.582;2022-07-29T08:15:29;4.13;;;1.80;;
21677;SDS011;11000;50.360;7.582;2022-07-29T08:17:49;6.03;;;2.17;;
21677;SDS011;11000;50.360;7.582;2022-07-29T08:20:10;3.77;;;1.77;;
21677;SDS011;11000;50.360;7.582;2022-07-29T08:22:30;3.43;;;1.63;;
21677;SDS011;11000;50.360;7.582;2022-07-29T08:24:51;3.63;;;1.77;;
21677;SDS011;11000;50.360;7.582;2022-07-29T08:27:15;3.50;;;1.80;;
21677;SDS011;11000;50.360;7.582;2022-07-29T08:29:37;4.53;;;1.83;;
21677;SDS011;11000;50.360;7.582;2022-07-29T08:31:58;4.20;;;1.90;;
21677;SDS011;11000;50.360;7.582;2022-07-29T08:34:19;5.90;;;2.10;;
21677;SDS011;11000;50.360;7.582;2022-07-29T08:36:40;5.00;;;2.00;;
21677;SDS011;11000;50.360;7.582;2022-07-29T08:39:00;3.87;;;2.07;;
21677;SDS011;11000;50.360;7.582;2022-07-29T08:41:22;5.97;;;2.53;;
21677;SDS011;11000;50.360;7.582;2022-07-29T08:43:44;4.23;;;2.17;;
21677;SDS011;11000;50.360;7.582;2022-07-29T08:46:05;5.93;;;2.60;;
21677;SDS011;11000;50.360;7.582;2022-07-29T08:48:25;3.67;;;1.97;;
21677;SDS011;11000;50.360;7.582;2022-07-29T08:50:47;6.60;;;2.20;;
21677;SDS011;11000;50.360;7.582;2022-07-29T08:53:12;7.30;;;2.23;;
21677;SDS011;11000;50.360;7.582;2022-07-29T08:55:34;4.10;;;2.10;;
21677;SDS011;11000;50.360;7.582;2022-07-29T08:57:54;4.30;;;2.40;;
21677;SDS011;11000;50.360;7.582;2022-07-29T09:00:17;5.40;;;2.40;;
21677;SDS011;11000;50.360;7.582;2022-07-29T09:02:41;3.00;;;2.07;;
21677;SDS011;11000;50.360;7.582;2022-07-29T09:05:04;5.77;;;2.30;;
21677;SDS011;11000;50.360;7.582;2022-07-29T09:07:25;6.40;;;2.03;;
21677;SDS011;11000;50.360;7.582;2022-07-29T09:09:45;6.33;;;2.33;;
21677;SDS011;11000;50.360;7.582;2022-07-29T09:12:07;5.37;;;2.30;;
21677;SDS011;11000;50.360;7.582;2022-07-29T09:14:31;5.57;;;2.10;;
21677;SDS011;11000;50.360;7.582;2022-07-29T09:19:19;5.03;;;2.17;;
21677;SDS011;11000;50.360;7.582;2022-07-29T09:21:58;8.20;;;2.30;;
21677;SDS011;11000;50.360;7.582;2022-07-29T09:24:20;18.97;;;2.73;;
21677;SDS011;11000;50.360;7.582;2022-07-29T09:26:41;7.63;;;2.40;;
21677;SDS011;11000;50.360;7.582;2022-07-29T09:29:11;4.47;;;2.20;;
21677;SDS011;11000;50.360;7.582;2022-07-29T09:31:34;5.17;;;1.90;;
21677;SDS011;11000;50.360;7.582;2022-07-29T09:33:57;3.23;;;2.13;;
21677;SDS011;11000;50.360;7.582;2022-07-29T09:36:20;5.13;;;2.50;;
21677;SDS011;11000;50.360;7.582;2022-07-29T09:38:40;4.43;;;2.60;;
21677;SDS011;11000;50.360;7.582;2022-07-29T09:41:02;7.63;;;2.20;;
21677;SDS011;11000;50.360;7.582;2022-07-29T09:43:23;4.00;;;2.57;;
21677;SDS011;11000;50.360;7.582;2022-07-29T09:45:44;6.60;;;3.00;;
21677;SDS011;11000;50.360;7.582;2022-07-29T09:48:14;4.87;;;2.17;;
21677;SDS011;11000;50.360;7.582;2022-07-29T09:50:44;4.30;;;2.50;;
21677;SDS011;11000;50.360;7.582;2022-07-29T09:53:06;3.47;;;2.17;;
21677;SDS011;11000;50.360;7.582;2022-07-29T09:55:29;4.43;;;2.10;;
21677;SDS011;11000;50.360;7.582;2022-07-29T09:57:50;6.70;;;2.30;;
21677;SDS011;11000;50.360;7.582;2022-07-29T10:00:12;3.83;;;2.20;;
21677;SDS011;11000;50.360;7.582;2022-07-29T10:02:35;6.33;;;2.00;;
21677;SDS011;11000;50.360;7.582;2022-07-29T10:04:57;2.70;;;2.30;;
21677;SDS011;11000;50.360;7.582;2022-07-29T10:07:19;4.30;;;2.37;;
21677;SDS011;11000;50.360;7.582;2022-07-29T10:09:39;4.47;;;2.10;;
21677;SDS011;11000;50.360;7.582;2022-07-29T10:12:16;4.13;;;2.30;;
21677;SDS011;11000;50.360;7.582;2022-07-29T10:14:37;3.93;;;1.97;;
21677;SDS011;11000;50.360;7.582;2022-07-29T10:16:59;10.53;;;2.53;;
21677;SDS011;11000;50.360;7.582;2022-07-29T10:19:20;3.70;;;2.30;;
21677;SDS011;11000;50.360;7.582;2022-07-29T10:21:42;5.33;;;2.20;;
21677;SDS011;11000;50.360;7.582;2022-07-29T10:24:05;3.83;;;2.17;;
21677;SDS011;11000;50.360;7.582;2022-07-29T10:26:29;4.80;;;2.43;;
21677;SDS011;11000;50.360;7.582;2022-07-29T10:28:50;5.27;;;2.50;;
21677;SDS011;11000;50.360;7.582;2022-07-29T10:31:14;4.27;;;2.10;;
21677;SDS011;11000;50.360;7.582;2022-07-29T10:36:56;5.63;;;2.23;;
21677;SDS011;11000;50.360;7.582;2022-07-29T10:42:46;3.40;;;2.37;;
21677;SDS011;11000;50.360;7.582;2022-07-29T10:45:07;3.03;;;2.20;;
21677;SDS011;11000;50.360;7.582;2022-07-29T10:47:27;5.27;;;2.50;;
21677;SDS011;11000;50.360;7.582;2022-07-29T10:49:59;3.83;;;2.33;;
21677;SDS011;11000;50.360;7.582;2022-07-29T10:52:22;3.70;;;2.50;;
21677;SDS011;11000;50.360;7.582;2022-07-29T10:54:47;6.37;;;2.60;;
21677;SDS011;11000;50.360;7.582;2022-07-29T10:57:14;2.40;;;2.00;;
21677;SDS011;11000;50.360;7.582;2022-07-29T10:59:35;4.60;;;2.50;;
21677;SDS011;11000;50.360;7.582;2022-07-29T11:01:56;3.47;;;2.03;;
21677;SDS011;11000;50.360;7.582;2022-07-29T11:04:58;3.97;;;2.03;;
21677;SDS011;11000;50.360;7.582;2022-07-29T11:07:06;8.50;;;2.23;;
21677;SDS011;11000;50.360;7.582;2022-07-29T11:09:29;4.83;;;2.20;;
21677;SDS011;11000;50.360;7.582;2022-07-29T11:11:50;6.13;;;2.63;;
21677;SDS011;11000;50.360;7.582;2022-07-29T11:14:11;4.33;;;2.73;;
21677;SDS011;11000;50.360;7.582;2022-07-29T11:16:57;4.73;;;2.10;;
21677;SDS011;11000;50.360;7.582;2022-07-29T11:19:22;5.73;;;2.57;;
21677;SDS011;11000;50.360;7.582;2022-07-29T11:21:43;6.10;;;2.57;;
21677;SDS011;11000;50.360;7.582;2022-07-29T11:24:13;5.17;;;2.07;;
21677;SDS011;11000;50.360;7.582;2022-07-29T11:26:34;3.77;;;2.37;;
21677;SDS011;11000;50.360;7.582;2022-07-29T11:31:36;5.47;;;2.50;;
21677;SDS011;11000;50.360;7.582;2022-07-29T11:37:04;4.47;;;2.50;;
21677;SDS011;11000;50.360;7.582;2022-07-29T11:39:35;4.93;;;2.40;;
21677;SDS011;11000;50.360;7.582;2022-07-29T11:47:27;6.30;;;2.37;;
21677;SDS011;11000;50.360;7.582;2022-07-29T11:49:49;5.70;;;2.60;;
21677;SDS011;11000;50.360;7.582;2022-07-29T11:52:11;4.33;;;2.27;;
21677;SDS011;11000;50.360;7.582;2022-07-29T11:54:32;3.40;;;2.27;;
21677;SDS011;11000;50.360;7.582;2022-07-29T11:56:54;5.00;;;2.80;;
21677;SDS011;11000;50.360;7.582;2022-07-29T11:59:15;7.27;;;2.77;;
21677;SDS011;11000;50.360;7.582;2022-07-29T12:01:36;8.53;;;2.80;;
21677;SDS011;11000;50.360;7.582;2022-07-29T12:04:06;4.87;;;3.10;;
21677;SDS011;11000;50.360;7.582;2022-07-29T12:06:27;6.03;;;2.53;;
21677;SDS011;11000;50.360;7.582;2022-07-29T12:08:48;4.43;;;2.50;;
21677;SDS011;11000;50.360;7.582;2022-07-29T12:11:15;2.67;;;2.47;;
21677;SDS011;11000;50.360;7.582;2022-07-29T12:13:40;4.53;;;2.60;;
21677;SDS011;11000;50.360;7.582;2022-07-29T12:16:01;6.17;;;2.60;;
21677;SDS011;11000;50.360;7.582;2022-07-29T12:18:21;4.30;;;2.50;;
21677;SDS011;11000;50.360;7.582;2022-07-29T12:20:42;3.43;;;2.60;;
21677;SDS011;11000;50.360;7.582;2022-07-29T12:23:06;3.50;;;2.50;;
21677;SDS011;11000;50.360;7.582;2022-07-29T12:25:32;5.60;;;2.60;;
21677;SDS011;11000;50.360;7.582;2022-07-29T12:27:57;5.27;;;2.70;;
21677;SDS011;11000;50.360;7.582;2022-07-29T12:30:19;2.50;;;2.30;;
21677;SDS011;11000;50.360;7.582;2022-07-29T12:32:46;4.03;;;2.80;;
21677;SDS011;11000;50.360;7.582;2022-07-29T12:35:11;2.87;;;2.33;;
21677;SDS011;11000;50.360;7.582;2022-07-29T12:37:34;3.33;;;2.60;;
21677;SDS011;11000;50.360;7.582;2022-07-29T12:39:56;4.57;;;2.23;;
21677;SDS011;11000;50.360;7.582;2022-07-29T12:42:17;3.70;;;2.50;;
21677;SDS011;11000;50.360;7.582;2022-07-29T12:44:50;3.70;;;2.40;;
21677;SDS011;11000;50.360;7.582;2022-07-29T12:47:11;3.60;;;2.77;;
21677;SDS011;11000;50.360;7.582;2022-07-29T12:49:32;5.73;;;2.80;;
21677;SDS011;11000;50.360;7.582;2022-07-29T12:51:52;5.07;;;2.20;;
21677;SDS011;11000;50.360;7.582;2022-07-29T12:54:14;5.93;;;2.60;;
21677;SDS011;11000;50.360;7.582;2022-07-29T12:56:35;6.63;;;2.60;;
21677;SDS011;11000;50.360;7.582;2022-07-29T12:58:56;2.80;;;2.40;;
21677;SDS011;11000;50.360;7.582;2022-07-29T13:01:18;5.10;;;2.80;;
21677;SDS011;11000;50.360;7.582;2022-07-29T13:03:50;4.87;;;2.50;;
21677;SDS011;11000;50.360;7.582;2022-07-29T13:09:03;3.60;;;2.60;;
21677;SDS011;11000;50.360;7.582;2022-07-29T13:11:35;3.93;;;2.33;;
21677;SDS011;11000;50.360;7.582;2022-07-29T13:14:00;3.53;;;2.60;;
21677;SDS011;11000;50.360;7.582;2022-07-29T13:16:21;4.90;;;2.90;;
21677;SDS011;11000;50.360;7.582;2022-07-29T13:18:46;3.03;;;2.37;;
21677;SDS011;11000;50.360;7.582;2022-07-29T13:21:10;2.77;;;2.33;;
21677;SDS011;11000;50.360;7.582;2022-07-29T13:23:32;3.63;;;2.30;;
21677;SDS011;11000;50.360;7.582;2022-07-29T13:25:53;4.40;;;2.33;;
21677;SDS011;11000;50.360;7.582;2022-07-29T13:28:13;5.60;;;2.50;;
21677;SDS011;11000;50.360;7.582;2022-07-29T13:30:34;3.43;;;2.50;;
21677;SDS011;11000;50.360;7.582;2022-07-29T13:32:55;3.03;;;2.23;;
21677;SDS011;11000;50.360;7.582;2022-07-29T13:35:15;4.20;;;2.60;;
21677;SDS011;11000;50.360;7.582;2022-07-29T13:37:36;3.57;;;2.40;;
21677;SDS011;11000;50.360;7.582;2022-07-29T13:40:00;3.73;;;2.40;;
21677;SDS011;11000;50.360;7.582;2022-07-29T13:42:23;3.47;;;2.30;;
21677;SDS011;11000;50.360;7.582;2022-07-29T13:44:44;2.60;;;2.40;;
21677;SDS011;11000;50.360;7.582;2022-07-29T13:47:05;4.87;;;2.80;;
21677;SDS011;11000;50.360;7.582;2022-07-29T13:49:26;6.10;;;2.40;;
21677;SDS011;11000;50.360;7.582;2022-07-29T13:51:48;4.30;;;2.53;;
21677;SDS011;11000;50.360;7.582;2022-07-29T13:54:09;3.67;;;2.30;;
21677;SDS011;11000;50.360;7.582;2022-07-29T13:56:30;7.93;;;2.50;;
21677;SDS011;11000;50.360;7.582;2022-07-29T13:58:50;2.60;;;2.20;;
21677;SDS011;11000;50.360;7.582;2022-07-29T14:01:11;3.73;;;2.27;;
21677;SDS011;11000;50.360;7.582;2022-07-29T14:03:32;4.53;;;2.47;;
21677;SDS011;11000;50.360;7.582;2022-07-29T14:05:52;3.50;;;2.50;;
21677;SDS011;11000;50.360;7.582;2022-07-29T14:08:13;3.30;;;2.47;;
21677;SDS011;11000;50.360;7.582;2022-07-29T14:10:34;5.87;;;3.20;;
21677;SDS011;11000;50.360;7.582;2022-07-29T14:12:54;3.70;;;2.57;;
21677;SDS011;11000;50.360;7.582;2022-07-29T14:15:15;4.50;;;2.50;;
21677;SDS011;11000;50.360;7.582;2022-07-29T14:17:35;4.17;;;2.53;;
21677;SDS011;11000;50.360;7.582;2022-07-29T14:19:56;4.47;;;2.67;;
21677;SDS011;11000;50.360;7.582;2022-07-29T14:22:16;5.37;;;2.20;;
21677;SDS011;11000;50.360;7.582;2022-07-29T14:24:38;2.80;;;2.40;;
21677;SDS011;11000;50.360;7.582;2022-07-29T14:26:59;5.00;;;2.60;;
21677;SDS011;11000;50.360;7.582;2022-07-29T14:29:20;4.97;;;2.30;;
21677;SDS011;11000;50.360;7.582;2022-07-29T14:31:41;3.77;;;2.73;;
21677;SDS011;11000;50.360;7.582;2022-07-29T14:34:02;4.37;;;2.63;;
21677;SDS011;11000;50.360;7.582;2022-07-29T14:36:23;4.77;;;3.03;;
21677;SDS011;11000;50.360;7.582;2022-07-29T14:38:43;7.73;;;2.53;;
21677;SDS011;11000;50.360;7.582;2022-07-29T14:41:04;8.00;;;2.83;;
21677;SDS011;11000;50.360;7.582;2022-07-29T14:43:26;3.70;;;2.60;;
21677;SDS011;11000;50.360;7.582;2022-07-29T14:45:46;4.20;;;2.33;;
21677;SDS011;11000;50.360;7.582;2022-07-29T14:48:07;6.03;;;3.03;;
21677;SDS011;11000;50.360;7.582;2022-07-29T14:50:27;3.07;;;2.33;;
21677;SDS011;11000;50.360;7.582;2022-07-29T14:52:48;2.83;;;2.30;;
21677;SDS011;11000;50.360;7.582;2022-07-29T14:55:08;4.17;;;2.20;;